createdAt,value
2022-12-17T00:01:43.275Z,95023.97
2022-12-17T00:04:47.834Z,95018.59
2022-12-17T00:07:52.547Z,95013.28
2022-12-17T00:10:57.306Z,95019.72
2022-12-17T00:14:01.735Z,95024.25
2022-12-17T00:17:06.170Z,95029.69
2022-12-17T00:20:11.307Z,95067.06
2022-12-17T00:23:22.206Z,95058.47
2022-12-17T00:26:40.052Z,95065.00
2022-12-17T00:29:44.912Z,95082.06
2022-12-17T00:32:49.597Z,95144.84
2022-12-17T00:35:55.267Z,95128.72
2022-12-17T00:39:01.204Z,95126.47
2022-12-17T00:42:06.046Z,95078.75
2022-12-17T00:45:10.710Z,95066.16
2022-12-17T00:48:15.442Z,95066.78
2022-12-17T00:51:20.172Z,95076.06
2022-12-17T00:54:25.267Z,95112.44
2022-12-17T00:57:29.915Z,95112.84
2022-12-17T01:00:34.782Z,95110.81
2022-12-17T01:03:53.237Z,95097.19
2022-12-17T01:06:58.368Z,95110.81
2022-12-17T01:10:03.152Z,95100.53
2022-12-17T01:13:43.613Z,95119.09
2022-12-17T01:16:48.298Z,95089.53
2022-12-17T01:19:52.882Z,95030.91
2022-12-17T01:23:00.793Z,95073.88
2022-12-17T01:26:15.622Z,95093.50
2022-12-17T01:29:20.051Z,95084.81
2022-12-17T01:32:24.829Z,95066.19
2022-12-17T01:35:29.659Z,95039.28
2022-12-17T01:38:37.877Z,95018.50
2022-12-17T01:41:42.714Z,95015.34
2022-12-17T01:45:09.078Z,95005.16
2022-12-17T01:48:36.920Z,94956.94
2022-12-17T01:51:43.446Z,94974.81
2022-12-17T01:54:48.147Z,94958.75
2022-12-17T01:57:53.073Z,94964.38
2022-12-17T02:00:58.364Z,94964.16
2022-12-17T02:04:03.494Z,94974.31
2022-12-17T02:07:31.839Z,94984.00
2022-12-17T02:10:48.876Z,94966.34
2022-12-17T02:13:57.452Z,94945.81
2022-12-17T02:17:09.720Z,94963.63
2022-12-17T02:20:23.597Z,94989.75
2022-12-17T02:23:44.227Z,94981.94
2022-12-17T02:27:01.571Z,94967.88
2022-12-17T02:30:10.092Z,94969.03
2022-12-17T02:33:14.873Z,94967.09
2022-12-17T02:36:25.055Z,94972.63
2022-12-17T02:39:30.136Z,94994.56
2022-12-17T02:42:35.051Z,94991.44
2022-12-17T02:45:40.123Z,95025.16
2022-12-17T02:48:44.763Z,95026.47
2022-12-17T02:51:49.257Z,95030.13
2022-12-17T02:54:54.405Z,95029.44
2022-12-17T02:58:00.689Z,95037.16
2022-12-17T03:01:05.626Z,95012.25
2022-12-17T03:04:10.244Z,95009.94
2022-12-17T03:07:14.787Z,95019.47
2022-12-17T03:10:20.228Z,95030.13
2022-12-17T03:13:24.778Z,95037.47
2022-12-17T03:16:37.065Z,95024.19
2022-12-17T03:19:41.712Z,95038.47
2022-12-17T03:22:46.016Z,95044.50
2022-12-17T03:25:50.767Z,95038.84
2022-12-17T03:28:56.097Z,95072.56
2022-12-17T03:32:00.850Z,95042.59
2022-12-17T03:35:05.483Z,95048.72
2022-12-17T03:38:09.999Z,95006.38
2022-12-17T03:41:15.221Z,95002.53
2022-12-17T03:44:19.895Z,95027.19
2022-12-17T03:47:24.303Z,95039.66
2022-12-17T03:50:28.606Z,95052.94
2022-12-17T03:53:33.713Z,95053.41
2022-12-17T03:56:38.129Z,95069.31
2022-12-17T03:59:42.840Z,95099.94
2022-12-17T04:02:47.508Z,95091.97
2022-12-17T04:05:52.241Z,95121.81
2022-12-17T04:08:56.719Z,95118.88
2022-12-17T04:12:01.111Z,95115.31
2022-12-17T04:15:05.795Z,95101.84
2022-12-17T04:18:10.513Z,95100.81
2022-12-17T04:21:15.108Z,95126.88
2022-12-17T04:24:19.940Z,95135.94
2022-12-17T04:27:24.478Z,95132.06
2022-12-17T04:30:29.627Z,95124.16
2022-12-17T04:33:34.356Z,95108.22
2022-12-17T04:36:39.347Z,95115.28
2022-12-17T04:39:43.945Z,95121.78
2022-12-17T04:42:48.538Z,95139.72
2022-12-17T04:45:52.957Z,95134.94
2022-12-17T04:49:01.093Z,95160.09
2022-12-17T04:52:05.704Z,95167.44
2022-12-17T04:55:10.108Z,95150.50
2022-12-17T04:58:21.138Z,95146.97
2022-12-17T05:01:25.334Z,95167.22
2022-12-17T05:04:30.015Z,95186.66
2022-12-17T05:07:34.650Z,95204.22
2022-12-17T05:10:49.908Z,95178.16
2022-12-17T05:13:54.995Z,95176.97
2022-12-17T05:17:06.884Z,95182.28
2022-12-17T05:20:11.720Z,95193.63
2022-12-17T05:23:23.462Z,95236.50
2022-12-17T05:26:40.785Z,95212.94
2022-12-17T05:29:45.230Z,95215.38
2022-12-17T05:32:49.826Z,95151.41
2022-12-17T05:35:54.385Z,95098.50
2022-12-17T05:38:58.589Z,95074.06
2022-12-17T05:42:03.206Z,95193.16
2022-12-17T05:45:07.666Z,95205.91
2022-12-17T05:48:16.233Z,95198.84
2022-12-17T05:51:20.803Z,95198.03
2022-12-17T05:54:25.647Z,95192.22
2022-12-17T05:57:31.611Z,95223.22
2022-12-17T06:00:36.411Z,95247.66
2022-12-17T06:03:41.566Z,95213.75
2022-12-17T06:06:46.470Z,95218.66
2022-12-17T06:09:51.153Z,95203.41
2022-12-17T06:12:55.636Z,95184.16
2022-12-17T06:16:01.247Z,95187.66
2022-12-17T06:19:05.691Z,95206.25
2022-12-17T06:22:10.189Z,95228.59
2022-12-17T06:25:15.389Z,95239.00
2022-12-17T06:28:20.487Z,95260.22
2022-12-17T06:31:25.133Z,95271.84
2022-12-17T06:34:29.741Z,95266.13
2022-12-17T06:37:34.211Z,95238.06
2022-12-17T06:40:38.943Z,95275.25
2022-12-17T06:43:43.639Z,95291.72
2022-12-17T06:46:48.202Z,95294.41
2022-12-17T06:49:56.602Z,95284.72
2022-12-17T06:53:12.019Z,95306.00
2022-12-17T06:56:17.994Z,95300.00
2022-12-17T06:59:22.362Z,95285.31
2022-12-17T07:02:29.734Z,95287.34
2022-12-17T07:05:34.097Z,95293.16
2022-12-17T07:08:38.821Z,95299.75
2022-12-17T07:11:43.298Z,95310.50
2022-12-17T07:14:47.986Z,95310.97
2022-12-17T07:17:52.753Z,95320.03
2022-12-17T07:20:57.470Z,95324.13
2022-12-17T07:24:02.344Z,95349.00
2022-12-17T07:27:07.051Z,95345.28
2022-12-17T07:30:11.622Z,95360.56
2022-12-17T07:33:20.835Z,95349.81
2022-12-17T07:36:30.663Z,95334.91
2022-12-17T07:39:35.235Z,95350.22
2022-12-17T07:42:39.741Z,95313.72
2022-12-17T07:45:44.760Z,95352.09
2022-12-17T07:48:49.177Z,95360.75
2022-12-17T07:51:53.626Z,95370.91
2022-12-17T07:54:58.237Z,95363.25
2022-12-17T07:58:02.529Z,95369.69
2022-12-17T08:01:07.335Z,95395.50
2022-12-17T08:04:11.936Z,95391.59
2022-12-17T08:07:16.583Z,95407.09
2022-12-17T08:10:22.262Z,95417.00
2022-12-17T08:13:28.033Z,95410.81
2022-12-17T08:16:32.834Z,95410.59
2022-12-17T08:19:37.147Z,95409.75
2022-12-17T08:22:42.024Z,95411.41
2022-12-17T08:25:46.436Z,95430.84
2022-12-17T08:28:51.441Z,95419.53
2022-12-17T08:31:56.317Z,95435.03
2022-12-17T08:35:14.552Z,95446.41
2022-12-17T08:38:24.165Z,95474.13
2022-12-17T08:41:28.730Z,95461.09
2022-12-17T08:44:33.503Z,95457.78
2022-12-17T08:47:37.915Z,95447.00
2022-12-17T08:50:42.669Z,95438.94
2022-12-17T08:53:47.221Z,95418.06
2022-12-17T08:56:51.888Z,95432.28
2022-12-17T08:59:57.114Z,95402.59
2022-12-17T09:03:01.819Z,95426.13
2022-12-17T09:06:06.156Z,95442.88
2022-12-17T09:09:10.583Z,95436.25
2022-12-17T09:12:15.106Z,95459.19
2022-12-17T09:15:19.811Z,95449.03
2022-12-17T09:18:24.461Z,95460.97
2022-12-17T09:21:29.111Z,95458.06
2022-12-17T09:24:34.287Z,95458.22
2022-12-17T09:27:38.691Z,95449.03
2022-12-17T09:30:43.372Z,95452.53
2022-12-17T09:33:47.993Z,95457.81
2022-12-17T09:36:52.436Z,95441.47
2022-12-17T09:39:56.911Z,95451.75
2022-12-17T09:43:27.451Z,95455.25
2022-12-17T09:46:38.453Z,95456.75
2022-12-17T09:49:45.078Z,95427.03
2022-12-17T09:52:59.373Z,95450.50
2022-12-17T09:56:08.866Z,95461.97
2022-12-17T09:59:13.526Z,95459.00
2022-12-17T10:02:18.269Z,95450.91
2022-12-17T10:05:25.766Z,95454.34
2022-12-17T10:08:33.443Z,95464.72
2022-12-17T10:11:38.931Z,95480.94
2022-12-17T10:14:44.710Z,95461.56
2022-12-17T10:17:49.476Z,95471.84
2022-12-17T10:21:02.690Z,95464.38
2022-12-17T10:24:07.228Z,95470.72
2022-12-17T10:27:11.715Z,95470.16
2022-12-17T10:30:16.528Z,95476.59
2022-12-17T10:33:25.723Z,95489.78
2022-12-17T10:36:41.815Z,95475.47
2022-12-17T10:39:46.536Z,95474.66
2022-12-17T10:42:57.718Z,95474.50
2022-12-17T10:46:12.082Z,95477.13
2022-12-17T10:49:24.346Z,95464.22
2022-12-17T10:52:49.814Z,95469.63
2022-12-17T10:55:55.438Z,95462.72
2022-12-17T10:59:05.287Z,95467.28
2022-12-17T11:02:16.502Z,95477.13
2022-12-17T11:05:22.043Z,95443.56
2022-12-17T11:08:27.278Z,95472.09
2022-12-17T11:11:33.877Z,95472.69
2022-12-17T11:14:42.007Z,95474.59
2022-12-17T11:17:46.797Z,95475.69
2022-12-17T11:21:03.564Z,95476.66
2022-12-17T11:24:09.286Z,95478.44
2022-12-17T11:27:15.144Z,95473.41
2022-12-17T11:30:19.923Z,95456.44
2022-12-17T11:33:30.729Z,95477.28
2022-12-17T11:36:45.232Z,95464.22
2022-12-17T11:39:57.262Z,95479.31
2022-12-17T11:43:17.679Z,95485.53
2022-12-17T11:46:32.003Z,95477.63
2022-12-17T11:49:48.843Z,95465.78
2022-12-17T11:52:59.561Z,95479.19
2022-12-17T11:56:28.453Z,95480.81
2022-12-17T11:59:50.968Z,95484.91
2022-12-17T12:03:20.394Z,95487.75
2022-12-17T12:06:34.873Z,95488.81
2022-12-17T12:10:02.557Z,95483.03
2022-12-17T12:13:16.760Z,95470.78
2022-12-17T12:16:53.591Z,95485.53
2022-12-17T12:20:04.605Z,95472.13
2022-12-17T12:23:27.246Z,95471.91
2022-12-17T12:26:34.676Z,95475.91
2022-12-17T12:30:00.341Z,95470.88
2022-12-17T12:33:20.802Z,95476.09
2022-12-17T12:36:29.838Z,95481.75
2022-12-17T12:39:39.255Z,95477.41
2022-12-17T12:43:04.877Z,95496.94
2022-12-17T12:46:26.661Z,95494.00
2022-12-17T12:49:45.944Z,95478.81
2022-12-17T12:52:50.199Z,95492.31
2022-12-17T12:55:59.193Z,95496.19
2022-12-17T12:59:03.682Z,95484.75
